createdAt,value
2022-11-14T00:00:53.181Z,992.83
2022-11-14T00:01:52.946Z,992.81
2022-11-14T00:02:53.103Z,992.81
2022-11-14T00:03:52.943Z,992.84
2022-11-14T00:04:52.942Z,992.77
2022-11-14T00:05:52.937Z,992.82
2022-11-14T00:06:52.962Z,992.78
2022-11-14T00:07:52.921Z,992.80
2022-11-14T00:08:52.914Z,992.81
2022-11-14T00:09:52.888Z,992.76
2022-11-14T00:10:52.942Z,992.73
2022-11-14T00:11:52.928Z,992.70
2022-11-14T00:12:52.882Z,992.78
2022-11-14T00:13:52.870Z,992.72
2022-11-14T00:14:52.870Z,992.73
2022-11-14T00:15:52.879Z,992.70
2022-11-14T00:16:52.915Z,992.69
2022-11-14T00:17:52.859Z,992.68
2022-11-14T00:18:52.937Z,992.64
2022-11-14T00:19:52.850Z,992.66
2022-11-14T00:20:52.856Z,992.67
2022-11-14T00:21:52.855Z,992.66
2022-11-14T00:22:53.139Z,992.55
2022-11-14T00:23:52.830Z,992.57
2022-11-14T00:24:52.818Z,992.57
2022-11-14T00:25:52.792Z,992.55
2022-11-14T00:26:52.800Z,992.52
2022-11-14T00:27:52.938Z,992.53
2022-11-14T00:28:52.799Z,992.48
2022-11-14T00:29:52.807Z,992.44
2022-11-14T00:30:52.799Z,992.48
2022-11-14T00:31:52.832Z,992.42
2022-11-14T00:32:52.780Z,992.46
2022-11-14T00:33:52.889Z,992.48
2022-11-14T00:34:52.865Z,992.47
2022-11-14T00:35:52.778Z,992.45
2022-11-14T00:36:52.761Z,992.44
2022-11-14T00:37:52.755Z,992.45
2022-11-14T00:38:52.775Z,992.47
2022-11-14T00:39:52.724Z,992.44
2022-11-14T00:40:52.747Z,992.45
2022-11-14T00:41:52.750Z,992.43
2022-11-14T00:42:52.729Z,992.41
2022-11-14T00:43:52.714Z,992.43
2022-11-14T00:44:52.813Z,992.38
2022-11-14T00:45:52.699Z,992.37
2022-11-14T00:46:52.703Z,992.35
2022-11-14T00:47:52.703Z,992.40
2022-11-14T00:48:52.697Z,992.38
2022-11-14T00:49:52.784Z,992.34
2022-11-14T00:50:52.678Z,992.35
2022-11-14T00:51:52.677Z,992.33
2022-11-14T00:52:52.675Z,992.35
2022-11-14T00:53:52.648Z,992.37
2022-11-14T00:54:52.658Z,992.34
2022-11-14T00:55:52.672Z,992.32
2022-11-14T00:56:52.647Z,992.30
2022-11-14T00:57:52.639Z,992.31
2022-11-14T00:58:52.655Z,992.27
2022-11-14T00:59:52.674Z,992.32
2022-11-14T01:00:52.826Z,992.32
2022-11-14T01:01:57.574Z,992.37
2022-11-14T01:02:53.613Z,992.32
2022-11-14T01:03:52.616Z,992.35
2022-11-14T01:04:52.618Z,992.28
2022-11-14T01:05:52.601Z,992.30
2022-11-14T01:06:52.716Z,992.34
2022-11-14T01:07:52.602Z,992.31
2022-11-14T01:08:52.654Z,992.28
2022-11-14T01:09:52.578Z,992.25
2022-11-14T01:10:52.587Z,992.35
2022-11-14T01:11:52.686Z,992.33
2022-11-14T01:12:52.553Z,992.23
2022-11-14T01:13:52.571Z,992.27
2022-11-14T01:14:52.544Z,992.24
2022-11-14T01:15:52.550Z,992.19
2022-11-14T01:16:52.547Z,992.19
2022-11-14T01:17:52.581Z,992.21
2022-11-14T01:18:52.591Z,992.22
2022-11-14T01:19:52.542Z,992.20
2022-11-14T01:20:52.601Z,992.20
2022-11-14T01:21:52.530Z,992.27
2022-11-14T01:22:52.706Z,992.21
2022-11-14T01:23:52.520Z,992.28
2022-11-14T01:24:52.513Z,992.21
2022-11-14T01:25:52.484Z,992.14
2022-11-14T01:26:52.482Z,992.16
2022-11-14T01:27:52.487Z,992.13
2022-11-14T01:28:52.521Z,992.17
2022-11-14T01:29:52.503Z,992.10
2022-11-14T01:30:52.472Z,992.12
2022-11-14T01:31:53.462Z,992.08
2022-11-14T01:32:52.472Z,992.11
2022-11-14T01:33:52.505Z,992.09
2022-11-14T01:34:52.463Z,992.10
2022-11-14T01:35:52.492Z,992.08
2022-11-14T01:36:52.480Z,992.11
2022-11-14T01:37:52.474Z,992.06
2022-11-14T01:38:52.524Z,992.07
2022-11-14T01:39:52.442Z,991.99
2022-11-14T01:40:52.432Z,992.03
2022-11-14T01:41:52.420Z,992.05
2022-11-14T01:42:52.419Z,991.99
2022-11-14T01:43:52.421Z,992.06
2022-11-14T01:44:52.583Z,991.98
2022-11-14T01:45:52.401Z,991.98
2022-11-14T01:46:52.412Z,991.96
2022-11-14T01:47:52.412Z,991.93
2022-11-14T01:48:52.408Z,991.93
2022-11-14T01:49:52.379Z,991.90
2022-11-14T01:50:52.504Z,991.83
2022-11-14T01:51:52.364Z,991.89
2022-11-14T01:52:52.389Z,991.87
2022-11-14T01:53:52.355Z,991.75
2022-11-14T01:54:52.451Z,991.75
2022-11-14T01:55:52.472Z,991.77
2022-11-14T01:56:52.370Z,991.77
2022-11-14T01:57:52.331Z,991.75
2022-11-14T01:58:52.324Z,991.73
2022-11-14T01:59:52.334Z,991.66
2022-11-14T02:00:52.323Z,991.68
2022-11-14T02:01:52.399Z,991.65
2022-11-14T02:02:52.352Z,991.66
2022-11-14T02:03:52.323Z,991.64
2022-11-14T02:04:52.305Z,991.61
2022-11-14T02:05:52.279Z,991.61
2022-11-14T02:06:52.468Z,991.57
2022-11-14T02:07:52.301Z,991.55
2022-11-14T02:08:52.289Z,991.58
2022-11-14T02:09:52.274Z,991.52
2022-11-14T02:10:52.367Z,991.50
2022-11-14T02:11:52.325Z,991.56
2022-11-14T02:12:52.318Z,991.49
2022-11-14T02:13:52.253Z,991.51
2022-11-14T02:14:52.256Z,991.52
2022-11-14T02:15:52.240Z,991.58
2022-11-14T02:17:22.260Z,991.53
2022-11-14T02:17:54.259Z,991.47
2022-11-14T02:18:52.247Z,991.45
2022-11-14T02:19:52.219Z,991.44
2022-11-14T02:20:52.223Z,991.41
2022-11-14T02:21:52.218Z,991.43
2022-11-14T02:22:52.242Z,991.37
2022-11-14T02:23:52.249Z,991.34
2022-11-14T02:24:52.213Z,991.43
2022-11-14T02:25:52.186Z,991.40
2022-11-14T02:26:52.289Z,991.37
2022-11-14T02:27:52.212Z,991.35
2022-11-14T02:28:52.211Z,991.40
2022-11-14T02:29:52.179Z,991.36
2022-11-14T02:30:52.169Z,991.36
2022-11-14T02:31:52.171Z,991.40
2022-11-14T02:33:54.160Z,991.34
2022-11-14T02:34:52.176Z,991.34
2022-11-14T02:35:52.159Z,991.35
2022-11-14T02:36:52.145Z,991.37
2022-11-14T02:37:52.149Z,991.35
2022-11-14T02:38:52.180Z,991.35
2022-11-14T02:39:52.127Z,991.32
2022-11-14T02:40:52.124Z,991.28
2022-11-14T02:41:52.135Z,991.23
2022-11-14T02:42:52.237Z,991.26
2022-11-14T02:43:52.156Z,991.23
2022-11-14T02:44:52.099Z,991.17
2022-11-14T02:45:52.091Z,991.20
2022-11-14T02:46:52.162Z,991.20
2022-11-14T02:47:52.114Z,991.15
2022-11-14T02:48:52.075Z,991.23
2022-11-14T02:49:52.115Z,991.21
2022-11-14T02:50:52.078Z,991.19
2022-11-14T02:51:52.076Z,991.13
2022-11-14T02:52:52.056Z,991.14
2022-11-14T02:53:52.088Z,991.10
2022-11-14T02:54:54.615Z,991.15
2022-11-14T02:55:53.037Z,991.12
2022-11-14T02:56:52.044Z,991.14
2022-11-14T02:57:52.027Z,991.14
2022-11-14T02:58:52.120Z,991.10
2022-11-14T02:59:52.018Z,991.10
2022-11-14T03:01:18.712Z,991.05
2022-11-14T03:01:54.050Z,991.05
2022-11-14T03:02:52.012Z,991.08
2022-11-14T03:03:52.011Z,991.06
2022-11-14T03:04:52.001Z,991.05
2022-11-14T03:05:52.024Z,991.04
2022-11-14T03:06:52.064Z,991.05
2022-11-14T03:07:51.991Z,991.01
2022-11-14T03:08:51.992Z,991.05
2022-11-14T03:09:51.989Z,990.99
2022-11-14T03:10:51.968Z,991.05
2022-11-14T03:11:52.103Z,991.05
2022-11-14T03:12:51.991Z,991.00
2022-11-14T03:13:51.972Z,991.01
2022-11-14T03:14:52.044Z,990.96
2022-11-14T03:15:51.951Z,991.03
2022-11-14T03:16:51.961Z,990.97
2022-11-14T03:17:51.927Z,990.96
2022-11-14T03:18:52.935Z,990.93
2022-11-14T03:19:51.934Z,990.92
2022-11-14T03:20:51.923Z,990.89
2022-11-14T03:21:51.929Z,990.85
2022-11-14T03:22:51.938Z,990.82
2022-11-14T03:23:51.915Z,990.85
2022-11-14T03:24:51.897Z,990.80
2022-11-14T03:25:51.877Z,990.73
2022-11-14T03:26:51.882Z,990.83
2022-11-14T03:27:51.903Z,990.76
2022-11-14T03:28:51.883Z,990.78
2022-11-14T03:29:51.868Z,990.75
2022-11-14T03:30:51.968Z,990.79
2022-11-14T03:31:51.864Z,990.78
2022-11-14T03:32:51.853Z,990.64
2022-11-14T03:33:51.883Z,990.76
2022-11-14T03:34:51.829Z,990.65
2022-11-14T03:35:51.843Z,990.65
2022-11-14T03:36:51.823Z,990.68
2022-11-14T03:37:56.183Z,990.72
2022-11-14T03:38:52.834Z,990.80
2022-11-14T03:39:51.820Z,990.69
2022-11-14T03:40:51.874Z,990.72
2022-11-14T03:41:51.825Z,990.71
2022-11-14T03:42:51.815Z,990.71
2022-11-14T03:43:51.813Z,990.75
2022-11-14T03:44:51.833Z,990.76
2022-11-14T03:45:51.791Z,990.63
2022-11-14T03:46:51.869Z,990.73
2022-11-14T03:47:51.789Z,990.71
2022-11-14T03:48:51.780Z,990.70
2022-11-14T03:49:51.792Z,990.66
2022-11-14T03:50:51.768Z,990.65
2022-11-14T03:51:51.758Z,990.67
2022-11-14T03:52:51.745Z,990.67
2022-11-14T03:53:51.776Z,990.69
2022-11-14T03:54:51.875Z,990.67
2022-11-14T03:55:51.735Z,990.64
2022-11-14T03:56:51.722Z,990.62
2022-11-14T03:57:51.741Z,990.60
2022-11-14T03:58:51.725Z,990.59
2022-11-14T03:59:51.740Z,990.62
2022-11-14T04:00:51.737Z,990.62
2022-11-14T04:01:51.705Z,990.65
2022-11-14T04:02:51.789Z,990.59
2022-11-14T04:03:51.711Z,990.63
2022-11-14T04:04:51.697Z,990.63
2022-11-14T04:05:51.689Z,990.53
2022-11-14T04:06:51.705Z,990.56
2022-11-14T04:07:51.672Z,990.51
2022-11-14T04:08:51.679Z,990.58
2022-11-14T04:09:51.692Z,990.60
2022-11-14T04:10:51.673Z,990.56
2022-11-14T04:11:51.651Z,990.56
2022-11-14T04:12:51.654Z,990.48
2022-11-14T04:13:51.673Z,990.55
2022-11-14T04:14:51.667Z,990.55
2022-11-14T04:15:51.637Z,990.56
2022-11-14T04:16:51.616Z,990.55
2022-11-14T04:17:51.636Z,990.60
2022-11-14T04:18:51.708Z,990.53
2022-11-14T04:19:51.643Z,990.51
2022-11-14T04:20:51.612Z,990.50
2022-11-14T04:21:51.598Z,990.48
2022-11-14T04:22:51.595Z,990.53
2022-11-14T04:23:51.619Z,990.52
2022-11-14T04:24:51.601Z,990.50
2022-11-14T04:25:51.586Z,990.52
2022-11-14T04:26:51.587Z,990.57
2022-11-14T04:27:51.581Z,990.48
2022-11-14T04:28:51.575Z,990.53
2022-11-14T04:29:51.566Z,990.43
2022-11-14T04:30:51.576Z,990.43
2022-11-14T04:31:51.549Z,990.40
2022-11-14T04:32:51.534Z,990.43
2022-11-14T04:33:51.562Z,990.41
2022-11-14T04:34:51.646Z,990.39
2022-11-14T04:35:51.528Z,990.41
2022-11-14T04:36:51.515Z,990.36
2022-11-14T04:37:51.532Z,990.40
2022-11-14T04:38:51.534Z,990.44
2022-11-14T04:39:51.526Z,990.34
2022-11-14T04:40:51.501Z,990.36
2022-11-14T04:41:51.494Z,990.38
2022-11-14T04:42:51.509Z,990.29
2022-11-14T04:43:51.509Z,990.30
2022-11-14T04:44:51.544Z,990.33
2022-11-14T04:45:51.492Z,990.30
2022-11-14T04:46:51.475Z,990.29
2022-11-14T04:47:51.481Z,990.27
2022-11-14T04:48:51.523Z,990.30
2022-11-14T04:49:51.457Z,990.36
2022-11-14T04:50:51.548Z,990.30
2022-11-14T04:51:52.303Z,990.30
2022-11-14T04:52:51.452Z,990.27
2022-11-14T04:53:51.454Z,990.30
2022-11-14T04:54:51.476Z,990.23
2022-11-14T04:55:51.445Z,990.23
2022-11-14T04:56:51.420Z,990.18
2022-11-14T04:57:51.438Z,990.18
2022-11-14T04:58:51.421Z,990.18
2022-11-14T04:59:51.758Z,990.21
2022-11-14T05:00:51.392Z,990.17
2022-11-14T05:01:51.486Z,990.17
2022-11-14T05:02:51.386Z,990.13
2022-11-14T05:03:51.406Z,990.15
2022-11-14T05:04:52.501Z,990.18
2022-11-14T05:05:51.376Z,990.08
2022-11-14T05:06:51.473Z,990.12
2022-11-14T05:07:51.424Z,990.10
2022-11-14T05:08:51.343Z,990.09
2022-11-14T05:09:51.347Z,990.08
2022-11-14T05:10:51.460Z,990.01
2022-11-14T05:11:51.345Z,989.99
2022-11-14T05:12:51.346Z,989.94
2022-11-14T05:13:51.340Z,989.97
2022-11-14T05:14:51.359Z,989.95
2022-11-14T05:15:51.439Z,989.95
2022-11-14T05:16:51.333Z,989.89
2022-11-14T05:17:51.321Z,989.90
2022-11-14T05:18:51.305Z,989.85
2022-11-14T05:19:51.327Z,989.86
2022-11-14T05:20:51.292Z,989.79
2022-11-14T05:21:51.350Z,989.73
2022-11-14T05:22:51.303Z,989.73
2022-11-14T05:23:51.282Z,989.73
2022-11-14T05:24:51.284Z,989.73
2022-11-14T05:25:54.787Z,989.72
2022-11-14T05:26:53.392Z,989.68
2022-11-14T05:27:51.311Z,989.71
2022-11-14T05:28:51.256Z,989.69
2022-11-14T05:29:51.249Z,989.59
2022-11-14T05:30:51.248Z,989.62
2022-11-14T05:31:51.230Z,989.64
2022-11-14T05:32:51.267Z,989.66
2022-11-14T05:33:51.254Z,989.65
2022-11-14T05:34:51.215Z,989.64
2022-11-14T05:35:51.238Z,989.59
2022-11-14T05:36:51.258Z,989.65
2022-11-14T05:37:52.968Z,989.57
2022-11-14T05:38:51.201Z,989.61
2022-11-14T05:39:51.190Z,989.63
2022-11-14T05:40:51.180Z,989.68
2022-11-14T05:41:51.188Z,989.68
2022-11-14T05:42:51.197Z,989.76
2022-11-14T05:43:51.213Z,989.77
2022-11-14T05:44:51.162Z,989.74
2022-11-14T05:45:52.156Z,989.78
2022-11-14T05:46:51.183Z,989.86
2022-11-14T05:47:51.159Z,989.83
2022-11-14T05:48:51.302Z,989.86
2022-11-14T05:49:51.150Z,989.84
2022-11-14T05:50:51.133Z,989.85
2022-11-14T05:51:51.142Z,989.86
2022-11-14T05:52:51.135Z,989.89
2022-11-14T05:53:51.112Z,989.82
2022-11-14T05:54:51.141Z,989.84
2022-11-14T05:55:51.110Z,989.87
2022-11-14T05:56:51.103Z,989.87
2022-11-14T05:57:51.102Z,989.90
2022-11-14T05:58:51.090Z,989.88
2022-11-14T05:59:51.097Z,989.83
2022-11-14T06:00:54.303Z,989.93
2022-11-14T06:01:51.107Z,989.95
2022-11-14T06:02:51.087Z,989.90
2022-11-14T06:03:51.077Z,989.85
2022-11-14T06:04:51.072Z,989.88
2022-11-14T06:05:51.271Z,989.89
2022-11-14T06:06:51.130Z,989.84
2022-11-14T06:07:51.055Z,989.84
2022-11-14T06:08:51.045Z,989.88
2022-11-14T06:09:51.056Z,989.92
2022-11-14T06:10:51.062Z,989.90
2022-11-14T06:11:51.019Z,989.86
2022-11-14T06:12:51.034Z,989.86
2022-11-14T06:13:51.042Z,989.93
2022-11-14T06:14:51.005Z,989.86
2022-11-14T06:15:51.010Z,989.96
2022-11-14T06:16:51.816Z,989.90
2022-11-14T06:17:50.992Z,989.85
2022-11-14T06:18:51.001Z,989.80
2022-11-14T06:19:50.986Z,989.84
2022-11-14T06:20:50.984Z,989.83
2022-11-14T06:21:51.070Z,989.76
2022-11-14T06:22:50.955Z,989.78
2022-11-14T06:23:51.730Z,989.81
2022-11-14T06:24:50.935Z,989.76
2022-11-14T06:25:50.990Z,989.81
2022-11-14T06:26:50.960Z,989.88
2022-11-14T06:27:50.970Z,989.83
2022-11-14T06:28:50.946Z,989.88
2022-11-14T06:29:50.951Z,989.88
2022-11-14T06:30:50.969Z,989.97
2022-11-14T06:31:50.918Z,989.88
2022-11-14T06:32:51.957Z,989.98
2022-11-14T06:33:50.908Z,989.97
2022-11-14T06:34:50.887Z,989.84
2022-11-14T06:35:50.926Z,989.86
2022-11-14T06:36:50.907Z,989.88
2022-11-14T06:37:50.896Z,989.91
2022-11-14T06:38:50.897Z,989.97
2022-11-14T06:39:50.873Z,989.91
2022-11-14T06:40:51.865Z,989.95
2022-11-14T06:41:50.865Z,989.91
2022-11-14T06:42:50.879Z,989.99
2022-11-14T06:43:50.872Z,990.02
2022-11-14T06:44:50.850Z,990.02
2022-11-14T06:45:50.890Z,990.01
2022-11-14T06:46:50.839Z,989.96
2022-11-14T06:47:50.851Z,989.94
2022-11-14T06:48:50.830Z,990.00
2022-11-14T06:49:50.812Z,989.95
2022-11-14T06:50:50.817Z,990.04
2022-11-14T06:51:50.816Z,989.93
2022-11-14T06:52:51.612Z,989.93
2022-11-14T06:53:50.832Z,989.94
2022-11-14T06:54:50.804Z,989.94
2022-11-14T06:55:51.732Z,990.02
2022-11-14T06:56:50.885Z,990.01
2022-11-14T06:57:50.781Z,989.91
2022-11-14T06:58:50.802Z,989.98
2022-11-14T06:59:50.777Z,990.04
2022-11-14T07:00:50.753Z,990.00
2022-11-14T07:01:50.768Z,990.03
2022-11-14T07:02:50.796Z,990.01
2022-11-14T07:03:51.770Z,990.07
2022-11-14T07:04:50.732Z,990.06
2022-11-14T07:05:50.760Z,990.08
2022-11-14T07:06:50.792Z,990.02
2022-11-14T07:07:50.742Z,990.03
2022-11-14T07:08:50.736Z,990.04
2022-11-14T07:09:50.725Z,990.06
2022-11-14T07:10:50.721Z,990.08
2022-11-14T07:11:50.789Z,990.08
2022-11-14T07:12:50.711Z,990.12
2022-11-14T07:13:50.713Z,990.10
2022-11-14T07:14:50.715Z,990.14
2022-11-14T07:15:50.690Z,990.10
2022-11-14T07:16:50.675Z,990.17
2022-11-14T07:17:50.685Z,990.09
2022-11-14T07:18:50.677Z,990.16
2022-11-14T07:19:50.683Z,990.23
2022-11-14T07:20:51.185Z,990.29
2022-11-14T07:21:50.658Z,990.27
2022-11-14T07:22:50.654Z,990.17
2022-11-14T07:23:50.649Z,990.21
2022-11-14T07:24:50.647Z,990.18
2022-11-14T07:25:50.644Z,990.21
2022-11-14T07:26:51.236Z,990.15
2022-11-14T07:27:50.615Z,990.12
2022-11-14T07:28:53.622Z,990.21
2022-11-14T07:29:51.629Z,990.18
2022-11-14T07:30:50.597Z,990.21
2022-11-14T07:31:50.626Z,990.11
2022-11-14T07:32:50.592Z,990.14
2022-11-14T07:33:50.621Z,990.16
2022-11-14T07:34:50.617Z,990.12
2022-11-14T07:35:50.601Z,990.18
2022-11-14T07:36:50.593Z,990.21
2022-11-14T07:37:50.635Z,990.18
2022-11-14T07:38:50.618Z,990.32
2022-11-14T07:39:50.731Z,990.28
2022-11-14T07:40:52.444Z,990.30
2022-11-14T07:41:50.643Z,990.16
2022-11-14T07:42:50.551Z,990.13
2022-11-14T07:43:50.561Z,990.20
2022-11-14T07:44:50.599Z,990.19
2022-11-14T07:45:50.571Z,990.20
2022-11-14T07:46:50.525Z,990.21
2022-11-14T07:47:50.552Z,990.17
2022-11-14T07:48:50.622Z,990.20
2022-11-14T07:49:51.260Z,990.19
2022-11-14T07:50:50.526Z,990.15
2022-11-14T07:51:50.502Z,990.13
2022-11-14T07:52:50.551Z,990.10
2022-11-14T07:53:50.517Z,990.21
2022-11-14T07:54:50.497Z,990.13
2022-11-14T07:55:50.475Z,990.14
2022-11-14T07:56:50.488Z,990.07
2022-11-14T07:57:50.627Z,990.09
2022-11-14T07:58:50.479Z,990.03
2022-11-14T07:59:50.450Z,989.98
2022-11-14T08:00:50.502Z,990.03
2022-11-14T08:01:50.461Z,990.08
2022-11-14T08:02:50.436Z,990.09
2022-11-14T08:03:50.450Z,990.08
2022-11-14T08:04:50.454Z,990.00
2022-11-14T08:05:50.447Z,990.00
2022-11-14T08:06:50.471Z,989.96
2022-11-14T08:07:50.391Z,990.00
2022-11-14T08:08:50.451Z,989.97
2022-11-14T08:09:50.396Z,989.95
2022-11-14T08:10:50.387Z,989.98
2022-11-14T08:11:50.383Z,990.02
2022-11-14T08:13:10.791Z,989.94
2022-11-14T08:13:53.182Z,989.95
2022-11-14T08:14:50.362Z,989.93
2022-11-14T08:15:50.333Z,989.93
2022-11-14T08:16:50.337Z,989.96
2022-11-14T08:17:50.330Z,989.92
2022-11-14T08:18:50.405Z,989.89
2022-11-14T08:19:50.436Z,989.91
2022-11-14T08:20:50.392Z,989.92
2022-11-14T08:21:50.313Z,990.02
2022-11-14T08:22:50.305Z,989.94
2022-11-14T08:23:50.282Z,989.98
2022-11-14T08:24:50.529Z,989.95
2022-11-14T08:25:50.292Z,989.79
2022-11-14T08:26:50.281Z,989.84
2022-11-14T08:27:50.257Z,989.79
2022-11-14T08:28:50.273Z,989.74
2022-11-14T08:29:50.258Z,989.81
2022-11-14T08:30:50.282Z,989.83
2022-11-14T08:31:50.245Z,989.81
2022-11-14T08:32:50.861Z,989.78
2022-11-14T08:33:50.222Z,989.83
2022-11-14T08:34:50.237Z,989.79
2022-11-14T08:35:50.325Z,989.91
2022-11-14T08:36:50.220Z,989.81
2022-11-14T08:37:50.220Z,989.82
2022-11-14T08:38:51.656Z,989.84
2022-11-14T08:39:51.209Z,989.83
2022-11-14T08:40:50.210Z,989.87
2022-11-14T08:41:50.220Z,989.90
2022-11-14T08:42:50.187Z,989.92
2022-11-14T08:43:50.173Z,989.83
2022-11-14T08:44:52.137Z,989.84
2022-11-14T08:45:51.165Z,989.83
2022-11-14T08:46:50.179Z,989.81
2022-11-14T08:47:50.767Z,989.82
2022-11-14T08:48:50.144Z,989.89
2022-11-14T08:49:50.762Z,989.74
2022-11-14T08:50:50.230Z,989.74
2022-11-14T08:51:50.145Z,989.84
2022-11-14T08:52:50.155Z,989.86
2022-11-14T08:53:50.109Z,989.87
2022-11-14T08:54:50.095Z,989.84
2022-11-14T08:55:50.112Z,989.81
2022-11-14T08:56:50.114Z,989.75
2022-11-14T08:57:50.207Z,989.81
2022-11-14T08:58:50.096Z,989.86
2022-11-14T08:59:50.061Z,989.90
2022-11-14T09:00:50.074Z,989.93
2022-11-14T09:01:51.080Z,989.95
2022-11-14T09:02:50.118Z,989.91
2022-11-14T09:03:52.222Z,989.81
2022-11-14T09:04:50.110Z,989.74
2022-11-14T09:05:50.045Z,989.92
2022-11-14T09:06:50.106Z,989.80
2022-11-14T09:07:50.042Z,989.85
2022-11-14T09:08:50.147Z,989.86
2022-11-14T09:09:50.030Z,989.75
2022-11-14T09:10:50.014Z,989.75
2022-11-14T09:11:50.010Z,989.78
2022-11-14T09:12:50.012Z,989.68
2022-11-14T09:13:50.004Z,989.66
2022-11-14T09:14:50.065Z,989.62
2022-11-14T09:15:50.017Z,989.60
2022-11-14T09:16:50.005Z,989.43
2022-11-14T09:17:49.985Z,989.29
2022-11-14T09:18:49.992Z,989.28
2022-11-14T09:19:49.986Z,989.18
2022-11-14T09:20:49.947Z,989.28
2022-11-14T09:21:49.958Z,989.36
2022-11-14T09:22:49.975Z,989.36
2022-11-14T09:23:49.937Z,989.45
2022-11-14T09:24:49.953Z,989.50
2022-11-14T09:25:50.039Z,989.60
2022-11-14T09:26:55.246Z,989.68
2022-11-14T09:27:50.909Z,989.68
2022-11-14T09:28:49.915Z,989.67
2022-11-14T09:29:49.903Z,989.58
2022-11-14T09:30:49.928Z,989.48
2022-11-14T09:31:49.907Z,989.51
2022-11-14T09:32:49.903Z,989.50
2022-11-14T09:33:49.883Z,989.48
2022-11-14T09:34:49.895Z,989.53
2022-11-14T09:35:49.864Z,989.57
2022-11-14T09:36:49.993Z,989.53
2022-11-14T09:37:49.862Z,989.63
2022-11-14T09:38:49.864Z,989.60
2022-11-14T09:39:49.848Z,989.67
2022-11-14T09:40:50.531Z,989.71
2022-11-14T09:41:49.869Z,989.67
2022-11-14T09:42:49.824Z,989.68
2022-11-14T09:43:49.834Z,989.66
2022-11-14T09:44:49.833Z,989.58
2022-11-14T09:45:49.831Z,989.63
2022-11-14T09:46:49.822Z,989.66
2022-11-14T09:47:50.142Z,989.77
2022-11-14T09:48:49.805Z,989.84
2022-11-14T09:49:49.784Z,989.74
2022-11-14T09:50:49.831Z,989.77
2022-11-14T09:51:49.789Z,989.79
2022-11-14T09:52:49.872Z,989.72
2022-11-14T09:53:49.783Z,989.79
2022-11-14T09:54:49.782Z,989.79
2022-11-14T09:55:49.763Z,989.80
2022-11-14T09:56:49.754Z,989.79
2022-11-14T09:57:49.753Z,989.76
2022-11-14T09:58:49.795Z,989.74
2022-11-14T09:59:49.720Z,989.84
2022-11-14T10:00:49.728Z,989.87
2022-11-14T10:01:49.780Z,989.87
2022-11-14T10:02:49.730Z,989.93
2022-11-14T10:03:49.885Z,989.82
2022-11-14T10:04:49.715Z,989.77
2022-11-14T10:05:49.735Z,989.73
2022-11-14T10:06:49.735Z,989.63
2022-11-14T10:07:49.694Z,989.56
2022-11-14T10:08:49.691Z,989.56
2022-11-14T10:09:49.717Z,989.60
2022-11-14T10:10:49.672Z,989.68
2022-11-14T10:11:49.675Z,989.69
2022-11-14T10:12:49.726Z,989.71
2022-11-14T10:13:49.686Z,989.59
2022-11-14T10:14:49.668Z,989.53
2022-11-14T10:15:49.647Z,989.47
2022-11-14T10:16:49.678Z,989.43
2022-11-14T10:17:49.667Z,989.37
2022-11-14T10:18:49.660Z,989.33
2022-11-14T10:19:49.666Z,989.36
2022-11-14T10:20:49.750Z,989.44
2022-11-14T10:21:49.614Z,989.49
2022-11-14T10:22:49.633Z,989.33
2022-11-14T10:23:49.591Z,989.44
2022-11-14T10:24:49.611Z,989.38
2022-11-14T10:25:49.637Z,989.41
2022-11-14T10:26:49.611Z,989.41
2022-11-14T10:27:55.030Z,989.37
2022-11-14T10:28:49.584Z,989.34
2022-11-14T10:29:49.581Z,989.35
2022-11-14T10:30:49.571Z,989.41
2022-11-14T10:31:49.682Z,989.43
2022-11-14T10:32:49.565Z,989.43
2022-11-14T10:33:49.548Z,989.40
2022-11-14T10:34:49.569Z,989.37
2022-11-14T10:35:49.544Z,989.31
2022-11-14T10:36:49.679Z,989.35
2022-11-14T10:37:49.577Z,989.35
2022-11-14T10:38:49.527Z,989.32
2022-11-14T10:39:49.527Z,989.30
2022-11-14T10:40:49.538Z,989.33
2022-11-14T10:41:57.997Z,989.34
2022-11-14T10:42:51.765Z,989.34
2022-11-14T10:43:49.503Z,989.27
2022-11-14T10:44:49.509Z,989.34
2022-11-14T10:45:49.493Z,989.34
2022-11-14T10:46:50.342Z,989.33
2022-11-14T10:47:49.519Z,989.41
2022-11-14T10:48:49.748Z,989.33
2022-11-14T10:49:49.519Z,989.38
2022-11-14T10:50:49.482Z,989.50
2022-11-14T10:51:49.453Z,989.44
2022-11-14T10:52:49.495Z,989.53
2022-11-14T10:53:49.513Z,989.62
2022-11-14T10:54:55.076Z,989.67
2022-11-14T10:56:03.592Z,989.69
2022-11-14T10:56:51.475Z,989.67
2022-11-14T10:57:49.448Z,989.67
2022-11-14T10:58:50.117Z,989.55
2022-11-14T10:59:50.498Z,989.56
2022-11-14T11:00:49.485Z,989.64
2022-11-14T11:01:49.436Z,989.61
2022-11-14T11:02:49.416Z,989.54
2022-11-14T11:03:49.456Z,989.65
2022-11-14T11:04:49.449Z,989.57
2022-11-14T11:05:49.432Z,989.53
2022-11-14T11:06:49.460Z,989.56
2022-11-14T11:07:49.463Z,989.49
2022-11-14T11:08:49.722Z,989.49
2022-11-14T11:09:49.443Z,989.38
2022-11-14T11:10:49.423Z,989.45
2022-11-14T11:11:49.912Z,989.43
2022-11-14T11:12:49.390Z,989.44
2022-11-14T11:13:49.351Z,989.46
2022-11-14T11:14:49.348Z,989.47
2022-11-14T11:15:49.384Z,989.41
2022-11-14T11:16:49.362Z,989.52
2022-11-14T11:17:49.318Z,989.47
2022-11-14T11:18:50.835Z,989.48
2022-11-14T11:19:50.360Z,989.49
2022-11-14T11:20:49.333Z,989.56
2022-11-14T11:21:49.416Z,989.62
2022-11-14T11:22:49.306Z,989.60
2022-11-14T11:23:49.313Z,989.59
2022-11-14T11:24:49.283Z,989.60
2022-11-14T11:25:49.332Z,989.67
2022-11-14T11:26:49.285Z,989.63
2022-11-14T11:27:49.279Z,989.57
2022-11-14T11:28:49.283Z,989.56
2022-11-14T11:29:49.257Z,989.55
2022-11-14T11:30:54.287Z,989.44
2022-11-14T11:31:51.268Z,989.52
2022-11-14T11:32:49.275Z,989.40
2022-11-14T11:33:49.241Z,989.34
2022-11-14T11:34:49.271Z,989.27
2022-11-14T11:35:49.223Z,989.26
2022-11-14T11:36:49.326Z,989.25
2022-11-14T11:37:49.211Z,989.28
2022-11-14T11:38:49.234Z,989.22
2022-11-14T11:39:49.211Z,989.30
2022-11-14T11:40:49.209Z,989.22
2022-11-14T11:43:36.668Z,989.25
2022-11-14T11:43:56.556Z,989.26
2022-11-14T11:44:51.215Z,989.22
2022-11-14T11:45:49.181Z,989.16
2022-11-14T11:46:49.182Z,989.15
2022-11-14T11:47:49.175Z,989.22
2022-11-14T11:48:49.177Z,989.19
2022-11-14T11:49:53.790Z,989.12
2022-11-14T11:50:51.159Z,989.10
2022-11-14T11:51:49.220Z,989.08
2022-11-14T11:52:49.156Z,989.08
2022-11-14T11:53:49.121Z,989.11
2022-11-14T11:54:49.147Z,989.10
2022-11-14T11:55:49.128Z,989.12
2022-11-14T11:56:49.107Z,989.14
2022-11-14T11:57:49.114Z,989.06
2022-11-14T11:58:49.426Z,989.08
2022-11-14T11:59:49.122Z,988.99
2022-11-14T12:00:49.087Z,989.01
2022-11-14T12:01:49.145Z,988.97
2022-11-14T12:02:50.296Z,988.95
2022-11-14T12:03:49.211Z,988.98
2022-11-14T12:04:49.095Z,988.96
2022-11-14T12:05:49.106Z,989.00
2022-11-14T12:06:49.127Z,988.96
2022-11-14T12:07:49.088Z,988.95
2022-11-14T12:08:49.063Z,989.01
2022-11-14T12:10:09.816Z,988.91
2022-11-14T12:10:50.829Z,988.88
2022-11-14T12:11:49.045Z,988.88
2022-11-14T12:12:49.019Z,988.93
2022-11-14T12:13:49.055Z,988.90
2022-11-14T12:14:49.063Z,988.93
2022-11-14T12:15:49.083Z,988.83
2022-11-14T12:16:49.036Z,988.91
2022-11-14T12:17:49.019Z,988.87
2022-11-14T12:18:49.004Z,988.91
2022-11-14T12:19:49.031Z,988.92
2022-11-14T12:20:49.049Z,988.85
2022-11-14T12:21:51.051Z,988.86
2022-11-14T12:22:48.994Z,988.94
2022-11-14T12:23:48.984Z,988.89
2022-11-14T12:24:48.999Z,988.94
2022-11-14T12:25:48.977Z,988.88
2022-11-14T12:26:48.992Z,988.87
2022-11-14T12:27:49.029Z,988.81
2022-11-14T12:28:48.957Z,988.85
2022-11-14T12:29:48.954Z,988.77
2022-11-14T12:30:49.080Z,988.88